Cane Beds, Arizona
Current Conditions -  °F | °C
As of 7:35 AM on Thursday 23 Oct 2014 (Local Time) from KAZC Reporting Station
Clear Clear  
Wind Chill: 38°   Ceiling: Unl
Heat Index: 41°   Visibility: 10mi
Dew Point: 32°   Wind: 5mph
Humidity: 71%   Direction: 150°SSE
Pressure: 30.26"   Gusts: NA
Location:  36.9484°N, 112.529°W
Report Text: KAZC 231435Z AUTO 15004KT 10SM CLR 05/00 A3026 RMK AO2 T00490001
Loading
Personal Weather Stations






























Interactive Weather Map
Tropical Storm Tracking
New forecast layout! Learn more

10-Day Weather Forecast

Advertisements
Track Severe Weather on mobile